sensor_id;sensor_type;location;lat;lon;timestamp;pressure;altitude;pressure_sealevel;temperature;humidity
17230;BME280;8731;50.364;8.958;2023-05-29T00:00:04;100326.53;;;13.94;70.96
17230;BME280;8731;50.364;8.958;2023-05-29T00:04:30;100328.63;;;14.30;67.71
17230;BME280;8731;50.364;8.958;2023-05-29T00:08:54;100317.63;;;14.63;65.21
17230;BME280;8731;50.364;8.958;2023-05-29T00:13:17;100321.50;;;14.58;65.66
17230;BME280;8731;50.364;8.958;2023-05-29T00:17:39;100320.09;;;14.20;68.57
17230;BME280;8731;50.364;8.958;2023-05-29T00:22:03;100320.38;;;14.02;68.34
17230;BME280;8731;50.364;8.958;2023-05-29T00:26:27;100323.47;;;13.88;69.02
17230;BME280;8731;50.364;8.958;2023-05-29T00:30:50;100317.34;;;13.86;68.66
17230;BME280;8731;50.364;8.958;2023-05-29T00:35:12;100313.00;;;13.85;68.99
17230;BME280;8731;50.364;8.958;2023-05-29T00:39:35;100326.06;;;13.47;71.41
17230;BME280;8731;50.364;8.958;2023-05-29T00:43:58;100319.69;;;13.73;69.29
17230;BME280;8731;50.364;8.958;2023-05-29T00:48:21;100307.25;;;13.06;73.92
17230;BME280;8731;50.364;8.958;2023-05-29T00:52:44;100316.75;;;13.38;71.29
17230;BME280;8731;50.364;8.958;2023-05-29T00:57:07;100305.19;;;13.12;72.79
17230;BME280;8731;50.364;8.958;2023-05-29T01:01:31;100329.31;;;12.85;74.36
17230;BME280;8731;50.364;8.958;2023-05-29T01:05:56;100330.59;;;13.01;72.84
17230;BME280;8731;50.364;8.958;2023-05-29T01:10:18;100325.47;;;13.01;71.22
17230;BME280;8731;50.364;8.958;2023-05-29T01:15:01;100327.19;;;12.61;75.54
17230;BME280;8731;50.364;8.958;2023-05-29T01:19:46;100335.34;;;12.57;74.79
17230;BME280;8731;50.364;8.958;2023-05-29T01:24:32;100322.91;;;12.90;71.47
17230;BME280;8731;50.364;8.958;2023-05-29T01:29:07;100328.50;;;12.76;72.78
17230;BME280;8731;50.364;8.958;2023-05-29T01:33:32;100332.44;;;12.63;72.99
17230;BME280;8731;50.364;8.958;2023-05-29T01:37:55;100336.00;;;12.54;73.90
17230;BME280;8731;50.364;8.958;2023-05-29T01:42:17;100323.03;;;12.82;70.50
17230;BME280;8731;50.364;8.958;2023-05-29T01:46:42;100333.75;;;12.49;73.70
17230;BME280;8731;50.364;8.958;2023-05-29T01:51:05;100333.34;;;12.73;71.46
17230;BME280;8731;50.364;8.958;2023-05-29T01:55:28;100331.81;;;12.75;70.55
17230;BME280;8731;50.364;8.958;2023-05-29T01:59:51;100327.97;;;12.70;70.98
17230;BME280;8731;50.364;8.958;2023-05-29T02:04:15;100328.06;;;12.04;76.04
17230;BME280;8731;50.364;8.958;2023-05-29T02:08:37;100332.56;;;11.87;74.57
17230;BME280;8731;50.364;8.958;2023-05-29T02:13:00;100337.94;;;12.09;72.00
17230;BME280;8731;50.364;8.958;2023-05-29T02:17:22;100332.50;;;12.25;71.66
17230;BME280;8731;50.364;8.958;2023-05-29T02:21:48;100339.41;;;12.26;71.22
17230;BME280;8731;50.364;8.958;2023-05-29T02:26:12;100335.56;;;12.21;71.64
17230;BME280;8731;50.364;8.958;2023-05-29T02:30:35;100332.47;;;12.15;72.67
17230;BME280;8731;50.364;8.958;2023-05-29T02:34:58;100319.03;;;12.07;72.76
17230;BME280;8731;50.364;8.958;2023-05-29T02:39:22;100327.72;;;12.09;72.54
17230;BME280;8731;50.364;8.958;2023-05-29T02:43:44;100328.13;;;11.30;78.37
17230;BME280;8731;50.364;8.958;2023-05-29T02:48:06;100332.63;;;11.51;77.22
17230;BME280;8731;50.364;8.958;2023-05-29T02:52:29;100331.91;;;11.71;74.54
17230;BME280;8731;50.364;8.958;2023-05-29T02:56:53;100330.25;;;11.25;78.72
17230;BME280;8731;50.364;8.958;2023-05-29T03:01:15;100334.53;;;11.35;77.56
17230;BME280;8731;50.364;8.958;2023-05-29T03:05:37;100335.50;;;11.27;76.01
17230;BME280;8731;50.364;8.958;2023-05-29T03:10:00;100331.81;;;11.42;74.79
17230;BME280;8731;50.364;8.958;2023-05-29T03:14:25;100343.06;;;11.17;77.21
17230;BME280;8731;50.364;8.958;2023-05-29T03:18:48;100340.38;;;11.34;76.20
17230;BME280;8731;50.364;8.958;2023-05-29T03:23:13;100335.06;;;10.95;75.92
17230;BME280;8731;50.364;8.958;2023-05-29T03:27:36;100341.53;;;10.91;76.14
17230;BME280;8731;50.364;8.958;2023-05-29T03:32:07;100342.38;;;11.00;77.81
17230;BME280;8731;50.364;8.958;2023-05-29T03:36:30;100343.75;;;10.88;78.94
17230;BME280;8731;50.364;8.958;2023-05-29T03:40:52;100346.66;;;11.10;76.96
17230;BME280;8731;50.364;8.958;2023-05-29T03:45:15;100351.94;;;11.03;77.76
17230;BME280;8731;50.364;8.958;2023-05-29T03:49:38;100348.78;;;11.05;77.35
17230;BME280;8731;50.364;8.958;2023-05-29T03:54:01;100365.59;;;11.03;78.30
17230;BME280;8731;50.364;8.958;2023-05-29T03:58:23;100363.31;;;11.06;79.01
17230;BME280;8731;50.364;8.958;2023-05-29T04:02:47;100358.13;;;10.96;79.29
17230;BME280;8731;50.364;8.958;2023-05-29T04:07:11;100370.31;;;10.82;81.32
17230;BME280;8731;50.364;8.958;2023-05-29T04:11:33;100378.50;;;10.96;79.67
17230;BME280;8731;50.364;8.958;2023-05-29T04:15:56;100385.41;;;10.97;80.69
17230;BME280;8731;50.364;8.958;2023-05-29T04:20:18;100388.13;;;10.90;84.14
17230;BME280;8731;50.364;8.958;2023-05-29T04:24:43;100393.63;;;11.03;80.87
17230;BME280;8731;50.364;8.958;2023-05-29T04:29:05;100399.22;;;11.27;83.22
17230;BME280;8731;50.364;8.958;2023-05-29T04:33:28;100398.56;;;11.38;86.82
17230;BME280;8731;50.364;8.958;2023-05-29T04:37:51;100402.91;;;11.94;84.76
17230;BME280;8731;50.364;8.958;2023-05-29T04:42:15;100403.91;;;12.81;85.82
17230;BME280;8731;50.364;8.958;2023-05-29T04:46:37;100402.56;;;13.44;83.54
17230;BME280;8731;50.364;8.958;2023-05-29T04:51:00;100399.50;;;13.99;81.17
17230;BME280;8731;50.364;8.958;2023-05-29T04:55:23;100400.31;;;14.51;80.11
17230;BME280;8731;50.364;8.958;2023-05-29T04:59:47;100408.47;;;14.99;77.96
17230;BME280;8731;50.364;8.958;2023-05-29T05:04:09;100409.84;;;15.27;75.63
17230;BME280;8731;50.364;8.958;2023-05-29T05:08:32;100413.91;;;15.91;74.42
17230;BME280;8731;50.364;8.958;2023-05-29T05:12:55;100412.94;;;16.47;72.51
17230;BME280;8731;50.364;8.958;2023-05-29T05:17:19;100411.41;;;16.84;70.01
17230;BME280;8731;50.364;8.958;2023-05-29T05:21:42;100412.53;;;17.49;67.61
17230;BME280;8731;50.364;8.958;2023-05-29T05:26:06;100414.78;;;18.33;65.73
17230;BME280;8731;50.364;8.958;2023-05-29T05:30:30;100412.56;;;19.18;64.13
17230;BME280;8731;50.364;8.958;2023-05-29T05:34:54;100412.84;;;19.23;62.57
17230;BME280;8731;50.364;8.958;2023-05-29T05:39:17;100417.47;;;20.29;61.09
17230;BME280;8731;50.364;8.958;2023-05-29T05:43:42;100413.56;;;20.65;59.55
17230;BME280;8731;50.364;8.958;2023-05-29T05:48:13;100412.53;;;20.77;58.23
17230;BME280;8731;50.364;8.958;2023-05-29T05:52:38;100408.59;;;21.15;56.10
17230;BME280;8731;50.364;8.958;2023-05-29T05:57:01;100406.69;;;21.60;54.23
17230;BME280;8731;50.364;8.958;2023-05-29T06:01:24;100407.59;;;22.98;54.00
17230;BME280;8731;50.364;8.958;2023-05-29T06:05:47;100413.84;;;23.40;52.82
17230;BME280;8731;50.364;8.958;2023-05-29T06:10:12;100418.50;;;23.47;50.69
17230;BME280;8731;50.364;8.958;2023-05-29T06:14:35;100411.91;;;24.55;50.97
17230;BME280;8731;50.364;8.958;2023-05-29T06:18:59;100412.44;;;24.46;47.21
17230;BME280;8731;50.364;8.958;2023-05-29T06:23:24;100419.41;;;24.91;46.51
17230;BME280;8731;50.364;8.958;2023-05-29T06:27:48;100430.38;;;23.23;47.58
17230;BME280;8731;50.364;8.958;2023-05-29T06:32:11;100420.91;;;24.22;45.78
17230;BME280;8731;50.364;8.958;2023-05-29T06:36:33;100426.09;;;25.29;44.19
17230;BME280;8731;50.364;8.958;2023-05-29T06:40:56;100425.91;;;25.47;43.68
17230;BME280;8731;50.364;8.958;2023-05-29T06:45:20;100428.94;;;25.57;44.98
17230;BME280;8731;50.364;8.958;2023-05-29T06:49:43;100431.75;;;25.63;45.66
17230;BME280;8731;50.364;8.958;2023-05-29T06:54:06;100426.09;;;26.50;44.02
17230;BME280;8731;50.364;8.958;2023-05-29T06:58:29;100432.31;;;26.80;43.39
17230;BME280;8731;50.364;8.958;2023-05-29T07:02:53;100441.66;;;25.50;46.08
17230;BME280;8731;50.364;8.958;2023-05-29T07:07:16;100439.13;;;25.99;43.14
17230;BME280;8731;50.364;8.958;2023-05-29T07:11:40;100445.56;;;26.86;42.82
17230;BME280;8731;50.364;8.958;2023-05-29T07:16:02;100438.53;;;26.57;42.61
17230;BME280;8731;50.364;8.958;2023-05-29T07:20:29;100447.00;;;26.00;42.71
17230;BME280;8731;50.364;8.958;2023-05-29T07:24:53;100440.88;;;27.02;42.72
17230;BME280;8731;50.364;8.958;2023-05-29T07:29:15;100444.88;;;26.92;43.27
17230;BME280;8731;50.364;8.958;2023-05-29T07:33:41;100434.97;;;28.32;41.98
17230;BME280;8731;50.364;8.958;2023-05-29T07:38:06;100441.09;;;27.39;41.26
17230;BME280;8731;50.364;8.958;2023-05-29T07:42:29;100432.94;;;28.22;41.27
17230;BME280;8731;50.364;8.958;2023-05-29T07:46:51;100430.56;;;29.42;40.59
17230;BME280;8731;50.364;8.958;2023-05-29T07:51:37;100433.88;;;28.24;38.96
17230;BME280;8731;50.364;8.958;2023-05-29T07:56:02;100427.59;;;29.25;39.12
17230;BME280;8731;50.364;8.958;2023-05-29T08:00:26;100426.88;;;29.75;37.76
17230;BME280;8731;50.364;8.958;2023-05-29T08:04:49;100429.63;;;29.39;38.12
17230;BME280;8731;50.364;8.958;2023-05-29T08:09:12;100431.22;;;29.32;37.49
17230;BME280;8731;50.364;8.958;2023-05-29T08:13:36;100430.16;;;30.60;36.94
17230;BME280;8731;50.364;8.958;2023-05-29T08:17:59;100430.41;;;30.75;37.86
17230;BME280;8731;50.364;8.958;2023-05-29T08:22:27;100429.34;;;30.62;35.68
17230;BME280;8731;50.364;8.958;2023-05-29T08:26:51;100426.72;;;30.11;38.93
17230;BME280;8731;50.364;8.958;2023-05-29T08:31:14;100414.69;;;30.76;37.95
17230;BME280;8731;50.364;8.958;2023-05-29T08:35:37;100421.91;;;30.37;37.40
17230;BME280;8731;50.364;8.958;2023-05-29T08:39:59;100419.84;;;31.32;38.47
17230;BME280;8731;50.364;8.958;2023-05-29T08:44:30;100425.81;;;30.09;36.72
17230;BME280;8731;50.364;8.958;2023-05-29T08:48:57;100421.91;;;30.91;37.94
17230;BME280;8731;50.364;8.958;2023-05-29T08:53:21;100421.34;;;31.13;37.10
17230;BME280;8731;50.364;8.958;2023-05-29T08:57:44;100416.38;;;32.12;36.24
17230;BME280;8731;50.364;8.958;2023-05-29T09:02:07;100427.19;;;29.46;38.05
17230;BME280;8731;50.364;8.958;2023-05-29T09:06:32;100413.47;;;31.85;35.04
17230;BME280;8731;50.364;8.958;2023-05-29T09:10:55;100415.56;;;31.42;36.18
17230;BME280;8731;50.364;8.958;2023-05-29T09:15:19;100408.88;;;32.61;35.83
17230;BME280;8731;50.364;8.958;2023-05-29T09:19:43;100413.41;;;31.79;34.00
17230;BME280;8731;50.364;8.958;2023-05-29T09:24:07;100410.97;;;31.97;36.31
17230;BME280;8731;50.364;8.958;2023-05-29T09:28:30;100406.78;;;32.20;36.53
17230;BME280;8731;50.364;8.958;2023-05-29T09:32:53;100414.84;;;31.52;35.21
17230;BME280;8731;50.364;8.958;2023-05-29T09:37:15;100404.75;;;32.92;35.72
17230;BME280;8731;50.364;8.958;2023-05-29T09:41:44;100408.47;;;30.73;36.77
17230;BME280;8731;50.364;8.958;2023-05-29T09:46:15;100406.59;;;31.97;35.43
17230;BME280;8731;50.364;8.958;2023-05-29T09:50:39;100408.97;;;31.08;34.29
17230;BME280;8731;50.364;8.958;2023-05-29T09:55:04;100407.44;;;30.62;35.36
17230;BME280;8731;50.364;8.958;2023-05-29T09:59:29;100410.63;;;31.00;34.96
17230;BME280;8731;50.364;8.958;2023-05-29T10:03:52;100403.91;;;33.07;33.43
17230;BME280;8731;50.364;8.958;2023-05-29T10:08:15;100404.75;;;32.95;33.76
17230;BME280;8731;50.364;8.958;2023-05-29T10:12:44;100401.38;;;33.28;32.08
17230;BME280;8731;50.364;8.958;2023-05-29T10:17:13;100403.78;;;31.14;31.57
17230;BME280;8731;50.364;8.958;2023-05-29T10:21:38;100417.16;;;29.28;33.31
17230;BME280;8731;50.364;8.958;2023-05-29T10:26:17;100401.94;;;29.98;29.38
17230;BME280;8731;50.364;8.958;2023-05-29T10:30:47;100411.09;;;30.73;27.18
17230;BME280;8731;50.364;8.958;2023-05-29T10:35:19;100406.47;;;31.90;28.56
17230;BME280;8731;50.364;8.958;2023-05-29T10:39:48;100412.56;;;29.17;30.03
17230;BME280;8731;50.364;8.958;2023-05-29T10:44:38;100407.63;;;30.22;28.41
17230;BME280;8731;50.364;8.958;2023-05-29T10:49:15;100407.59;;;28.90;29.87
17230;BME280;8731;50.364;8.958;2023-05-29T10:53:40;100396.09;;;30.13;29.58
17230;BME280;8731;50.364;8.958;2023-05-29T10:58:04;100405.28;;;28.67;29.73
17230;BME280;8731;50.364;8.958;2023-05-29T11:02:27;100393.75;;;29.81;28.99
17230;BME280;8731;50.364;8.958;2023-05-29T11:06:50;100394.97;;;29.55;31.14
17230;BME280;8731;50.364;8.958;2023-05-29T11:11:14;100390.72;;;29.60;29.79
17230;BME280;8731;50.364;8.958;2023-05-29T11:16:04;100389.16;;;28.16;31.90
17230;BME280;8731;50.364;8.958;2023-05-29T11:20:37;100386.41;;;28.45;32.18
17230;BME280;8731;50.364;8.958;2023-05-29T11:25:06;100391.16;;;28.62;32.75
17230;BME280;8731;50.364;8.958;2023-05-29T11:29:30;100383.22;;;28.58;33.34
17230;BME280;8731;50.364;8.958;2023-05-29T11:33:54;100398.41;;;27.40;34.00
17230;BME280;8731;50.364;8.958;2023-05-29T11:38:19;100393.50;;;29.27;32.85
17230;BME280;8731;50.364;8.958;2023-05-29T11:42:43;100377.44;;;28.36;33.36
17230;BME280;8731;50.364;8.958;2023-05-29T11:47:09;100382.06;;;28.12;31.95
17230;BME280;8731;50.364;8.958;2023-05-29T11:51:32;100389.66;;;28.01;33.55
17230;BME280;8731;50.364;8.958;2023-05-29T11:56:06;100380.50;;;28.89;32.18
17230;BME280;8731;50.364;8.958;2023-05-29T12:00:31;100369.66;;;28.05;34.02
17230;BME280;8731;50.364;8.958;2023-05-29T12:05:01;100368.88;;;28.42;33.58
17230;BME280;8731;50.364;8.958;2023-05-29T12:09:25;100369.84;;;28.85;33.00
17230;BME280;8731;50.364;8.958;2023-05-29T12:13:55;100367.78;;;28.70;32.87
17230;BME280;8731;50.364;8.958;2023-05-29T12:18:20;100371.38;;;28.75;32.34
17230;BME280;8731;50.364;8.958;2023-05-29T12:22:45;100360.97;;;28.06;32.32
17230;BME280;8731;50.364;8.958;2023-05-29T12:27:08;100358.25;;;28.37;33.45
17230;BME280;8731;50.364;8.958;2023-05-29T12:31:31;100356.94;;;28.92;33.49
17230;BME280;8731;50.364;8.958;2023-05-29T12:35:54;100364.03;;;28.96;33.46
17230;BME280;8731;50.364;8.958;2023-05-29T12:40:24;100354.28;;;28.53;33.74
17230;BME280;8731;50.364;8.958;2023-05-29T12:44:48;100360.53;;;28.24;33.03
17230;BME280;8731;50.364;8.958;2023-05-29T12:49:12;100355.72;;;27.71;34.35
17230;BME280;8731;50.364;8.958;2023-05-29T12:53:35;100362.19;;;27.86;33.55
17230;BME280;8731;50.364;8.958;2023-05-29T12:57:59;100352.72;;;28.61;34.48
17230;BME280;8731;50.364;8.958;2023-05-29T13:02:21;100352.44;;;27.18;36.22
17230;BME280;8731;50.364;8.958;2023-05-29T13:06:44;100364.22;;;28.30;35.40
17230;BME280;8731;50.364;8.958;2023-05-29T13:11:07;100355.19;;;27.53;36.88
17230;BME280;8731;50.364;8.958;2023-05-29T13:15:30;100351.09;;;28.66;35.05
17230;BME280;8731;50.364;8.958;2023-05-29T13:19:54;100362.19;;;27.86;34.29
17230;BME280;8731;50.364;8.958;2023-05-29T13:24:16;100355.75;;;28.80;36.32
17230;BME280;8731;50.364;8.958;2023-05-29T13:28:39;100363.75;;;28.47;37.36
17230;BME280;8731;50.364;8.958;2023-05-29T13:33:02;100359.03;;;28.69;37.11
17230;BME280;8731;50.364;8.958;2023-05-29T13:37:25;100364.38;;;27.69;37.60
17230;BME280;8731;50.364;8.958;2023-05-29T13:41:47;100357.31;;;28.71;36.52
17230;BME280;8731;50.364;8.958;2023-05-29T13:46:10;100366.50;;;27.52;38.91
17230;BME280;8731;50.364;8.958;2023-05-29T13:50:34;100347.78;;;28.03;38.43
17230;BME280;8731;50.364;8.958;2023-05-29T13:54:56;100347.13;;;28.11;38.50
17230;BME280;8731;50.364;8.958;2023-05-29T13:59:21;100343.63;;;28.11;38.40
17230;BME280;8731;50.364;8.958;2023-05-29T14:03:44;100339.69;;;28.27;38.29
17230;BME280;8731;50.364;8.958;2023-05-29T14:08:07;100336.13;;;27.59;38.48
17230;BME280;8731;50.364;8.958;2023-05-29T14:12:30;100341.50;;;27.32;38.84
17230;BME280;8731;50.364;8.958;2023-05-29T14:16:53;100330.44;;;27.42;38.89
17230;BME280;8731;50.364;8.958;2023-05-29T14:21:15;100326.06;;;28.07;39.13
17230;BME280;8731;50.364;8.958;2023-05-29T14:25:39;100331.78;;;27.59;39.05
17230;BME280;8731;50.364;8.958;2023-05-29T14:30:02;100339.34;;;27.17;38.45
17230;BME280;8731;50.364;8.958;2023-05-29T14:34:25;100332.50;;;27.53;39.42
17230;BME280;8731;50.364;8.958;2023-05-29T14:38:47;100332.22;;;28.09;39.33
17230;BME280;8731;50.364;8.958;2023-05-29T14:43:11;100335.44;;;27.33;40.05
17230;BME280;8731;50.364;8.958;2023-05-29T14:47:33;100338.88;;;27.32;39.23
17230;BME280;8731;50.364;8.958;2023-05-29T14:51:56;100323.97;;;27.61;39.98
17230;BME280;8731;50.364;8.958;2023-05-29T14:56:18;100335.78;;;27.76;39.67
17230;BME280;8731;50.364;8.958;2023-05-29T15:00:42;100327.25;;;27.85;39.41
17230;BME280;8731;50.364;8.958;2023-05-29T15:05:05;100344.88;;;26.98;40.54
17230;BME280;8731;50.364;8.958;2023-05-29T15:09:28;100333.47;;;27.24;39.40
17230;BME280;8731;50.364;8.958;2023-05-29T15:13:50;100332.97;;;27.69;40.23
17230;BME280;8731;50.364;8.958;2023-05-29T15:18:14;100334.81;;;27.43;39.92
17230;BME280;8731;50.364;8.958;2023-05-29T15:22:36;100343.84;;;27.21;40.62
17230;BME280;8731;50.364;8.958;2023-05-29T15:26:59;100344.50;;;27.45;40.40
17230;BME280;8731;50.364;8.958;2023-05-29T15:31:21;100338.47;;;27.48;40.18
17230;BME280;8731;50.364;8.958;2023-05-29T15:35:45;100345.25;;;27.10;40.90
17230;BME280;8731;50.364;8.958;2023-05-29T15:40:08;100343.34;;;27.04;40.63
17230;BME280;8731;50.364;8.958;2023-05-29T15:44:31;100351.84;;;26.42;41.42
17230;BME280;8731;50.364;8.958;2023-05-29T15:48:55;100351.94;;;26.73;41.36
17230;BME280;8731;50.364;8.958;2023-05-29T15:53:19;100335.59;;;26.50;41.84
17230;BME280;8731;50.364;8.958;2023-05-29T15:57:41;100344.22;;;26.76;40.77
17230;BME280;8731;50.364;8.958;2023-05-29T16:02:05;100343.63;;;26.31;41.49
17230;BME280;8731;50.364;8.958;2023-05-29T16:06:29;100344.03;;;26.43;41.44
17230;BME280;8731;50.364;8.958;2023-05-29T16:10:53;100339.44;;;26.35;41.85
17230;BME280;8731;50.364;8.958;2023-05-29T16:15:16;100348.50;;;26.20;42.27
17230;BME280;8731;50.364;8.958;2023-05-29T16:19:40;100352.78;;;26.18;43.06
17230;BME280;8731;50.364;8.958;2023-05-29T16:24:03;100347.66;;;26.21;43.43
17230;BME280;8731;50.364;8.958;2023-05-29T16:28:27;100348.94;;;26.07;43.50
17230;BME280;8731;50.364;8.958;2023-05-29T16:32:49;100362.91;;;25.34;45.15
17230;BME280;8731;50.364;8.958;2023-05-29T16:37:12;100365.84;;;25.93;43.75
17230;BME280;8731;50.364;8.958;2023-05-29T16:41:34;100364.31;;;25.50;43.67
17230;BME280;8731;50.364;8.958;2023-05-29T16:45:58;100359.88;;;25.48;44.30
17230;BME280;8731;50.364;8.958;2023-05-29T16:50:21;100351.25;;;25.02;44.96
17230;BME280;8731;50.364;8.958;2023-05-29T16:54:44;100348.19;;;25.13;45.56
17230;BME280;8731;50.364;8.958;2023-05-29T16:59:07;100355.78;;;25.30;44.55
17230;BME280;8731;50.364;8.958;2023-05-29T17:03:31;100360.13;;;25.07;45.01
17230;BME280;8731;50.364;8.958;2023-05-29T17:07:54;100353.88;;;25.02;45.18
17230;BME280;8731;50.364;8.958;2023-05-29T17:12:16;100355.41;;;24.75;45.32
17230;BME280;8731;50.364;8.958;2023-05-29T17:16:39;100359.31;;;24.86;45.50
17230;BME280;8731;50.364;8.958;2023-05-29T17:21:03;100364.78;;;24.49;46.19
17230;BME280;8731;50.364;8.958;2023-05-29T17:25:25;100369.97;;;24.70;45.30
17230;BME280;8731;50.364;8.958;2023-05-29T17:29:48;100363.91;;;24.48;46.21
17230;BME280;8731;50.364;8.958;2023-05-29T17:34:10;100368.75;;;24.39;46.18
17230;BME280;8731;50.364;8.958;2023-05-29T17:38:34;100373.72;;;24.56;46.27
17230;BME280;8731;50.364;8.958;2023-05-29T17:42:57;100376.63;;;24.41;46.35
17230;BME280;8731;50.364;8.958;2023-05-29T17:47:19;100372.63;;;23.88;47.40
17230;BME280;8731;50.364;8.958;2023-05-29T17:51:43;100382.94;;;24.06;46.22
17230;BME280;8731;50.364;8.958;2023-05-29T17:56:07;100387.81;;;23.98;46.74
17230;BME280;8731;50.364;8.958;2023-05-29T18:00:29;100387.03;;;23.80;46.96
17230;BME280;8731;50.364;8.958;2023-05-29T18:04:52;100391.44;;;24.02;46.36
17230;BME280;8731;50.364;8.958;2023-05-29T18:09:15;100390.25;;;23.55;47.71
17230;BME280;8731;50.364;8.958;2023-05-29T18:13:39;100404.94;;;23.35;47.58
17230;BME280;8731;50.364;8.958;2023-05-29T18:18:01;100408.84;;;23.25;47.03
17230;BME280;8731;50.364;8.958;2023-05-29T18:22:24;100412.41;;;23.27;47.80
17230;BME280;8731;50.364;8.958;2023-05-29T18:26:46;100405.31;;;23.23;46.90
17230;BME280;8731;50.364;8.958;2023-05-29T18:31:10;100419.66;;;22.80;48.02
17230;BME280;8731;50.364;8.958;2023-05-29T18:35:32;100418.69;;;22.78;48.05
17230;BME280;8731;50.364;8.958;2023-05-29T18:39:55;100423.97;;;22.79;47.69
17230;BME280;8731;50.364;8.958;2023-05-29T18:44:17;100421.69;;;22.50;48.63
17230;BME280;8731;50.364;8.958;2023-05-29T18:48:41;100434.44;;;22.11;49.71
17230;BME280;8731;50.364;8.958;2023-05-29T18:53:03;100427.03;;;22.19;48.60
17230;BME280;8731;50.364;8.958;2023-05-29T18:57:27;100433.03;;;22.18;49.03
17230;BME280;8731;50.364;8.958;2023-05-29T19:01:50;100441.28;;;22.27;47.98
17230;BME280;8731;50.364;8.958;2023-05-29T19:06:14;100444.50;;;21.89;49.13
17230;BME280;8731;50.364;8.958;2023-05-29T19:10:38;100444.66;;;21.92;48.58
17230;BME280;8731;50.364;8.958;2023-05-29T19:15:01;100441.97;;;21.90;48.29
17230;BME280;8731;50.364;8.958;2023-05-29T19:19:23;100449.69;;;21.56;49.62
17230;BME280;8731;50.364;8.958;2023-05-29T19:23:47;100458.66;;;21.30;50.51
17230;BME280;8731;50.364;8.958;2023-05-29T19:28:10;100454.53;;;21.50;48.77
17230;BME280;8731;50.364;8.958;2023-05-29T19:32:32;100464.91;;;21.19;50.64
17230;BME280;8731;50.364;8.958;2023-05-29T19:36:54;100468.31;;;20.72;50.96
17230;BME280;8731;50.364;8.958;2023-05-29T19:41:19;100476.41;;;20.93;49.46
17230;BME280;8731;50.364;8.958;2023-05-29T19:45:41;100482.88;;;20.85;50.64
17230;BME280;8731;50.364;8.958;2023-05-29T19:50:05;100496.34;;;20.79;50.24
17230;BME280;8731;50.364;8.958;2023-05-29T19:54:28;100504.38;;;20.69;50.57
17230;BME280;8731;50.364;8.958;2023-05-29T19:58:52;100514.31;;;20.62;51.13
17230;BME280;8731;50.364;8.958;2023-05-29T20:03:14;100508.66;;;20.39;51.64
17230;BME280;8731;50.364;8.958;2023-05-29T20:07:36;100510.72;;;20.45;51.25
17230;BME280;8731;50.364;8.958;2023-05-29T20:11:59;100513.34;;;20.32;50.30
17230;BME280;8731;50.364;8.958;2023-05-29T20:16:23;100516.66;;;20.14;50.99
17230;BME280;8731;50.364;8.958;2023-05-29T20:20:46;100518.84;;;20.08;51.82
17230;BME280;8731;50.364;8.958;2023-05-29T20:25:09;100532.56;;;20.07;51.19
17230;BME280;8731;50.364;8.958;2023-05-29T20:29:31;100539.00;;;19.86;51.53
17230;BME280;8731;50.364;8.958;2023-05-29T20:33:55;100536.59;;;19.74;51.99
17230;BME280;8731;50.364;8.958;2023-05-29T20:38:17;100537.13;;;19.55;52.08
17230;BME280;8731;50.364;8.958;2023-05-29T20:42:40;100536.03;;;19.65;51.97
17230;BME280;8731;50.364;8.958;2023-05-29T20:47:03;100548.13;;;19.40;52.20
17230;BME280;8731;50.364;8.958;2023-05-29T20:51:27;100551.75;;;19.28;51.24
17230;BME280;8731;50.364;8.958;2023-05-29T20:55:52;100550.25;;;19.32;52.79
17230;BME280;8731;50.364;8.958;2023-05-29T21:00:15;100557.50;;;18.98;53.81
17230;BME280;8731;50.364;8.958;2023-05-29T21:04:37;100552.44;;;18.99;53.73
17230;BME280;8731;50.364;8.958;2023-05-29T21:09:01;100550.16;;;19.04;52.42
17230;BME280;8731;50.364;8.958;2023-05-29T21:13:25;100565.53;;;18.89;52.81
17230;BME280;8731;50.364;8.958;2023-05-29T21:17:47;100555.56;;;18.69;53.61
17230;BME280;8731;50.364;8.958;2023-05-29T21:22:10;100553.69;;;18.66;53.54
17230;BME280;8731;50.364;8.958;2023-05-29T21:26:33;100542.63;;;18.56;53.72
17230;BME280;8731;50.364;8.958;2023-05-29T21:30:55;100541.06;;;18.58;53.21
17230;BME280;8731;50.364;8.958;2023-05-29T21:35:20;100557.28;;;18.44;53.82
17230;BME280;8731;50.364;8.958;2023-05-29T21:39:43;100554.56;;;18.29;53.85
17230;BME280;8731;50.364;8.958;2023-05-29T21:44:08;100561.63;;;18.31;53.97
17230;BME280;8731;50.364;8.958;2023-05-29T21:48:31;100569.28;;;17.93;55.47
17230;BME280;8731;50.364;8.958;2023-05-29T21:52:53;100561.34;;;18.15;54.50
17230;BME280;8731;50.364;8.958;2023-05-29T21:57:15;100576.03;;;18.16;53.96
17230;BME280;8731;50.364;8.958;2023-05-29T22:01:39;100593.13;;;18.02;54.48
17230;BME280;8731;50.364;8.958;2023-05-29T22:06:02;100589.66;;;18.02;54.41
17230;BME280;8731;50.364;8.958;2023-05-29T22:10:25;100601.25;;;17.84;54.23
17230;BME280;8731;50.364;8.958;2023-05-29T22:14:48;100590.69;;;17.92;54.13
17230;BME280;8731;50.364;8.958;2023-05-29T22:19:11;100594.09;;;17.79;54.88
17230;BME280;8731;50.364;8.958;2023-05-29T22:23:34;100593.31;;;17.57;56.19
17230;BME280;8731;50.364;8.958;2023-05-29T22:27:56;100593.22;;;17.67;54.71
17230;BME280;8731;50.364;8.958;2023-05-29T22:32:19;100584.84;;;17.35;56.56
17230;BME280;8731;50.364;8.958;2023-05-29T22:36:42;100592.44;;;17.33;55.90
17230;BME280;8731;50.364;8.958;2023-05-29T22:41:05;100589.66;;;17.30;55.68
17230;BME280;8731;50.364;8.958;2023-05-29T22:45:27;100594.78;;;17.18;56.01
17230;BME280;8731;50.364;8.958;2023-05-29T22:49:49;100592.25;;;17.30;54.43
17230;BME280;8731;50.364;8.958;2023-05-29T22:54:13;100587.41;;;17.23;54.89
17230;BME280;8731;50.364;8.958;2023-05-29T22:58:35;100592.00;;;17.15;54.72
17230;BME280;8731;50.364;8.958;2023-05-29T23:02:57;100599.94;;;16.95;55.03
17230;BME280;8731;50.364;8.958;2023-05-29T23:07:20;100604.06;;;16.93;55.22
17230;BME280;8731;50.364;8.958;2023-05-29T23:11:43;100618.84;;;16.62;56.40
17230;BME280;8731;50.364;8.958;2023-05-29T23:16:06;100614.16;;;16.56;56.41